sensor_id;sensor_type;location;lat;lon;timestamp;temperature;humidity
25328;DHT22;13279;51.300;12.394;2023-03-14T00:01:11;10.40;99.90
25328;DHT22;13279;51.300;12.394;2023-03-14T00:03:42;10.30;99.90
25328;DHT22;13279;51.300;12.394;2023-03-14T00:06:11;10.40;99.90
25328;DHT22;13279;51.300;12.394;2023-03-14T00:08:39;10.30;99.90
25328;DHT22;13279;51.300;12.394;2023-03-14T00:11:08;10.30;99.90
25328;DHT22;13279;51.300;12.394;2023-03-14T00:13:36;10.30;99.90
25328;DHT22;13279;51.300;12.394;2023-03-14T00:16:07;10.20;99.90
25328;DHT22;13279;51.300;12.394;2023-03-14T00:18:35;10.20;99.90
25328;DHT22;13279;51.300;12.394;2023-03-14T00:21:04;10.20;99.90
25328;DHT22;13279;51.300;12.394;2023-03-14T00:23:37;10.20;99.90
25328;DHT22;13279;51.300;12.394;2023-03-14T00:26:11;10.20;99.90
25328;DHT22;13279;51.300;12.394;2023-03-14T00:28:40;10.20;99.90
25328;DHT22;13279;51.300;12.394;2023-03-14T00:31:12;10.20;99.90
25328;DHT22;13279;51.300;12.394;2023-03-14T00:33:41;10.20;99.90
25328;DHT22;13279;51.300;12.394;2023-03-14T00:36:10;10.30;99.90
25328;DHT22;13279;51.300;12.394;2023-03-14T00:38:40;10.20;99.90
25328;DHT22;13279;51.300;12.394;2023-03-14T00:41:09;10.20;99.90
25328;DHT22;13279;51.300;12.394;2023-03-14T00:43:40;10.20;99.90
25328;DHT22;13279;51.300;12.394;2023-03-14T00:46:10;10.20;99.90
25328;DHT22;13279;51.300;12.394;2023-03-14T00:48:39;10.30;99.90
25328;DHT22;13279;51.300;12.394;2023-03-14T00:51:09;10.30;99.90
25328;DHT22;13279;51.300;12.394;2023-03-14T00:53:43;10.40;99.90
25328;DHT22;13279;51.300;12.394;2023-03-14T00:56:12;10.50;99.90
25328;DHT22;13279;51.300;12.394;2023-03-14T00:58:40;10.50;99.90
25328;DHT22;13279;51.300;12.394;2023-03-14T01:01:12;10.60;99.90
25328;DHT22;13279;51.300;12.394;2023-03-14T01:03:43;10.60;99.90
25328;DHT22;13279;51.300;12.394;2023-03-14T01:06:14;10.60;99.90
25328;DHT22;13279;51.300;12.394;2023-03-14T01:08:42;10.70;99.90
25328;DHT22;13279;51.300;12.394;2023-03-14T01:11:16;10.70;99.90
25328;DHT22;13279;51.300;12.394;2023-03-14T01:13:45;10.80;99.90
25328;DHT22;13279;51.300;12.394;2023-03-14T01:16:15;10.80;99.90
25328;DHT22;13279;51.300;12.394;2023-03-14T01:18:43;10.80;99.90
25328;DHT22;13279;51.300;12.394;2023-03-14T01:21:16;10.80;99.90
25328;DHT22;13279;51.300;12.394;2023-03-14T01:23:45;10.80;99.90
25328;DHT22;13279;51.300;12.394;2023-03-14T01:26:15;10.90;99.90
25328;DHT22;13279;51.300;12.394;2023-03-14T01:28:46;10.90;99.90
25328;DHT22;13279;51.300;12.394;2023-03-14T01:31:14;10.90;99.90
25328;DHT22;13279;51.300;12.394;2023-03-14T01:33:43;10.90;99.90
25328;DHT22;13279;51.300;12.394;2023-03-14T01:36:11;11.00;99.90
25328;DHT22;13279;51.300;12.394;2023-03-14T01:38:40;11.00;99.90
25328;DHT22;13279;51.300;12.394;2023-03-14T01:41:13;11.00;99.90
25328;DHT22;13279;51.300;12.394;2023-03-14T01:43:43;11.10;99.90
25328;DHT22;13279;51.300;12.394;2023-03-14T01:46:40;11.00;99.90
25328;DHT22;13279;51.300;12.394;2023-03-14T01:49:15;11.00;99.90
25328;DHT22;13279;51.300;12.394;2023-03-14T01:51:54;11.00;99.90
25328;DHT22;13279;51.300;12.394;2023-03-14T01:54:26;11.00;99.90
25328;DHT22;13279;51.300;12.394;2023-03-14T01:56:57;10.90;99.90
25328;DHT22;13279;51.300;12.394;2023-03-14T01:59:30;10.90;99.90
25328;DHT22;13279;51.300;12.394;2023-03-14T02:02:00;10.90;99.90
25328;DHT22;13279;51.300;12.394;2023-03-14T02:04:33;10.90;99.90
25328;DHT22;13279;51.300;12.394;2023-03-14T02:07:08;10.90;99.90
25328;DHT22;13279;51.300;12.394;2023-03-14T02:09:43;10.80;99.90
25328;DHT22;13279;51.300;12.394;2023-03-14T02:12:16;10.80;99.90
25328;DHT22;13279;51.300;12.394;2023-03-14T02:14:49;10.80;99.90
25328;DHT22;13279;51.300;12.394;2023-03-14T02:17:44;10.80;99.90
25328;DHT22;13279;51.300;12.394;2023-03-14T02:20:33;10.90;99.90
25328;DHT22;13279;51.300;12.394;2023-03-14T02:23:01;11.10;99.90
25328;DHT22;13279;51.300;12.394;2023-03-14T02:25:35;11.20;99.90
25328;DHT22;13279;51.300;12.394;2023-03-14T02:28:07;11.20;99.90
25328;DHT22;13279;51.300;12.394;2023-03-14T02:30:36;11.20;99.90
25328;DHT22;13279;51.300;12.394;2023-03-14T02:33:06;11.20;99.90
25328;DHT22;13279;51.300;12.394;2023-03-14T02:35:39;11.20;99.90
25328;DHT22;13279;51.300;12.394;2023-03-14T02:38:10;11.10;99.90
25328;DHT22;13279;51.300;12.394;2023-03-14T02:40:43;11.10;99.90
25328;DHT22;13279;51.300;12.394;2023-03-14T02:43:13;11.20;99.90
25328;DHT22;13279;51.300;12.394;2023-03-14T02:45:46;11.10;99.90
25328;DHT22;13279;51.300;12.394;2023-03-14T02:48:20;11.10;99.90
25328;DHT22;13279;51.300;12.394;2023-03-14T02:50:51;11.10;99.90
25328;DHT22;13279;51.300;12.394;2023-03-14T02:53:23;11.10;99.90
25328;DHT22;13279;51.300;12.394;2023-03-14T02:55:52;11.00;99.90
25328;DHT22;13279;51.300;12.394;2023-03-14T02:58:24;11.00;99.90
25328;DHT22;13279;51.300;12.394;2023-03-14T03:00:58;11.00;99.90
25328;DHT22;13279;51.300;12.394;2023-03-14T03:03:25;11.10;99.90
25328;DHT22;13279;51.300;12.394;2023-03-14T03:05:54;11.20;99.90
25328;DHT22;13279;51.300;12.394;2023-03-14T03:08:24;11.20;99.90
25328;DHT22;13279;51.300;12.394;2023-03-14T03:10:54;11.20;99.90
25328;DHT22;13279;51.300;12.394;2023-03-14T03:13:23;11.20;99.90
25328;DHT22;13279;51.300;12.394;2023-03-14T03:15:53;11.10;99.90
25328;DHT22;13279;51.300;12.394;2023-03-14T03:18:20;11.10;99.90
25328;DHT22;13279;51.300;12.394;2023-03-14T03:20:48;11.20;99.90
25328;DHT22;13279;51.300;12.394;2023-03-14T03:23:16;11.10;99.90
25328;DHT22;13279;51.300;12.394;2023-03-14T03:25:48;11.20;99.90
25328;DHT22;13279;51.300;12.394;2023-03-14T03:28:16;11.20;99.90
25328;DHT22;13279;51.300;12.394;2023-03-14T03:30:46;11.30;99.90
25328;DHT22;13279;51.300;12.394;2023-03-14T03:33:14;11.20;99.90
25328;DHT22;13279;51.300;12.394;2023-03-14T03:35:44;11.30;99.90
25328;DHT22;13279;51.300;12.394;2023-03-14T03:38:14;11.30;99.90
25328;DHT22;13279;51.300;12.394;2023-03-14T03:40:43;11.30;99.90
25328;DHT22;13279;51.300;12.394;2023-03-14T03:43:11;11.30;99.90
25328;DHT22;13279;51.300;12.394;2023-03-14T03:45:41;11.30;99.90
25328;DHT22;13279;51.300;12.394;2023-03-14T03:48:11;11.30;99.90
25328;DHT22;13279;51.300;12.394;2023-03-14T03:50:44;11.30;99.90
25328;DHT22;13279;51.300;12.394;2023-03-14T03:53:13;11.20;99.90
25328;DHT22;13279;51.300;12.394;2023-03-14T03:55:41;11.20;99.90
25328;DHT22;13279;51.300;12.394;2023-03-14T03:58:10;11.10;99.90
25328;DHT22;13279;51.300;12.394;2023-03-14T04:00:37;11.10;99.90
25328;DHT22;13279;51.300;12.394;2023-03-14T04:03:05;11.00;99.90
25328;DHT22;13279;51.300;12.394;2023-03-14T04:05:35;11.00;99.90
25328;DHT22;13279;51.300;12.394;2023-03-14T04:08:07;11.00;99.90
25328;DHT22;13279;51.300;12.394;2023-03-14T04:10:35;11.00;99.90
25328;DHT22;13279;51.300;12.394;2023-03-14T04:13:12;10.90;99.90
25328;DHT22;13279;51.300;12.394;2023-03-14T04:15:42;10.90;99.90
25328;DHT22;13279;51.300;12.394;2023-03-14T04:18:17;10.90;99.90
25328;DHT22;13279;51.300;12.394;2023-03-14T04:20:50;10.80;99.90
25328;DHT22;13279;51.300;12.394;2023-03-14T04:23:20;10.80;99.90
25328;DHT22;13279;51.300;12.394;2023-03-14T04:25:49;10.80;99.90
25328;DHT22;13279;51.300;12.394;2023-03-14T04:28:18;10.80;99.90
25328;DHT22;13279;51.300;12.394;2023-03-14T04:30:46;10.80;99.90
25328;DHT22;13279;51.300;12.394;2023-03-14T04:33:19;10.70;99.90
25328;DHT22;13279;51.300;12.394;2023-03-14T04:35:54;10.70;99.90
25328;DHT22;13279;51.300;12.394;2023-03-14T04:38:22;10.70;99.90
25328;DHT22;13279;51.300;12.394;2023-03-14T04:40:51;10.70;99.90
25328;DHT22;13279;51.300;12.394;2023-03-14T04:43:20;10.70;99.90
25328;DHT22;13279;51.300;12.394;2023-03-14T04:45:53;10.70;99.90
25328;DHT22;13279;51.300;12.394;2023-03-14T04:48:21;10.70;99.90
25328;DHT22;13279;51.300;12.394;2023-03-14T04:50:49;10.60;99.90
25328;DHT22;13279;51.300;12.394;2023-03-14T04:53:18;10.60;99.90
25328;DHT22;13279;51.300;12.394;2023-03-14T04:55:48;10.70;99.90
25328;DHT22;13279;51.300;12.394;2023-03-14T04:58:17;10.70;99.90
25328;DHT22;13279;51.300;12.394;2023-03-14T05:00:46;10.70;99.90
25328;DHT22;13279;51.300;12.394;2023-03-14T05:03:32;10.70;99.90
25328;DHT22;13279;51.300;12.394;2023-03-14T05:06:21;10.70;99.90
25328;DHT22;13279;51.300;12.394;2023-03-14T05:08:55;10.70;99.90
25328;DHT22;13279;51.300;12.394;2023-03-14T05:11:55;10.70;99.90
25328;DHT22;13279;51.300;12.394;2023-03-14T05:14:26;10.70;99.90
25328;DHT22;13279;51.300;12.394;2023-03-14T05:17:18;10.70;99.90
25328;DHT22;13279;51.300;12.394;2023-03-14T05:20:05;10.70;99.90
25328;DHT22;13279;51.300;12.394;2023-03-14T05:22:54;10.70;99.90
25328;DHT22;13279;51.300;12.394;2023-03-14T05:25:59;10.70;99.90
25328;DHT22;13279;51.300;12.394;2023-03-14T05:28:50;10.70;99.90
25328;DHT22;13279;51.300;12.394;2023-03-14T05:31:33;10.70;99.90
25328;DHT22;13279;51.300;12.394;2023-03-14T05:34:16;10.70;99.90
25328;DHT22;13279;51.300;12.394;2023-03-14T05:37:02;10.80;99.90
25328;DHT22;13279;51.300;12.394;2023-03-14T05:39:48;10.80;99.90
25328;DHT22;13279;51.300;12.394;2023-03-14T05:42:36;10.80;99.90
25328;DHT22;13279;51.300;12.394;2023-03-14T05:45:19;10.80;99.90
25328;DHT22;13279;51.300;12.394;2023-03-14T05:48:05;10.80;99.90
25328;DHT22;13279;51.300;12.394;2023-03-14T05:50:46;10.80;99.90
25328;DHT22;13279;51.300;12.394;2023-03-14T05:53:33;10.80;99.90
25328;DHT22;13279;51.300;12.394;2023-03-14T05:56:30;10.80;99.90
25328;DHT22;13279;51.300;12.394;2023-03-14T05:59:38;10.80;99.90
25328;DHT22;13279;51.300;12.394;2023-03-14T06:02:21;10.80;99.90
25328;DHT22;13279;51.300;12.394;2023-03-14T06:04:58;10.80;99.90
25328;DHT22;13279;51.300;12.394;2023-03-14T06:07:27;10.80;99.90
25328;DHT22;13279;51.300;12.394;2023-03-14T06:09:54;10.80;99.90
25328;DHT22;13279;51.300;12.394;2023-03-14T06:12:22;10.90;99.90
25328;DHT22;13279;51.300;12.394;2023-03-14T06:14:51;10.90;99.90
25328;DHT22;13279;51.300;12.394;2023-03-14T06:17:18;10.90;99.90
25328;DHT22;13279;51.300;12.394;2023-03-14T06:19:55;10.90;99.90
25328;DHT22;13279;51.300;12.394;2023-03-14T06:22:23;10.90;99.90
25328;DHT22;13279;51.300;12.394;2023-03-14T06:24:50;10.90;99.90
25328;DHT22;13279;51.300;12.394;2023-03-14T06:27:18;11.00;99.90
25328;DHT22;13279;51.300;12.394;2023-03-14T06:29:46;10.90;99.90
25328;DHT22;13279;51.300;12.394;2023-03-14T06:32:15;10.90;99.90
25328;DHT22;13279;51.300;12.394;2023-03-14T06:34:44;10.90;99.90
25328;DHT22;13279;51.300;12.394;2023-03-14T06:37:12;10.90;99.90
25328;DHT22;13279;51.300;12.394;2023-03-14T06:39:40;10.90;99.90
25328;DHT22;13279;51.300;12.394;2023-03-14T06:42:18;10.90;99.90
25328;DHT22;13279;51.300;12.394;2023-03-14T06:44:45;11.00;99.90
25328;DHT22;13279;51.300;12.394;2023-03-14T06:47:14;11.00;99.90
25328;DHT22;13279;51.300;12.394;2023-03-14T06:49:44;11.00;99.90
25328;DHT22;13279;51.300;12.394;2023-03-14T06:52:13;11.10;99.90
25328;DHT22;13279;51.300;12.394;2023-03-14T06:54:40;11.10;99.90
25328;DHT22;13279;51.300;12.394;2023-03-14T06:57:08;11.10;99.90
25328;DHT22;13279;51.300;12.394;2023-03-14T06:59:35;11.10;99.90
25328;DHT22;13279;51.300;12.394;2023-03-14T07:02:02;11.20;99.90
25328;DHT22;13279;51.300;12.394;2023-03-14T07:04:31;11.20;99.90
25328;DHT22;13279;51.300;12.394;2023-03-14T07:06:58;11.30;99.90
25328;DHT22;13279;51.300;12.394;2023-03-14T07:09:26;11.30;99.90
25328;DHT22;13279;51.300;12.394;2023-03-14T07:11:58;11.30;99.90
25328;DHT22;13279;51.300;12.394;2023-03-14T07:14:25;11.30;99.90
25328;DHT22;13279;51.300;12.394;2023-03-14T07:16:53;11.30;99.90
25328;DHT22;13279;51.300;12.394;2023-03-14T07:19:22;11.30;99.90
25328;DHT22;13279;51.300;12.394;2023-03-14T07:21:51;11.30;99.90
25328;DHT22;13279;51.300;12.394;2023-03-14T07:24:23;11.30;99.90
25328;DHT22;13279;51.300;12.394;2023-03-14T07:26:51;11.30;99.90
25328;DHT22;13279;51.300;12.394;2023-03-14T07:29:18;11.30;99.90
25328;DHT22;13279;51.300;12.394;2023-03-14T07:31:47;11.40;99.90
25328;DHT22;13279;51.300;12.394;2023-03-14T07:34:19;11.40;99.90
25328;DHT22;13279;51.300;12.394;2023-03-14T07:36:47;11.50;99.90
25328;DHT22;13279;51.300;12.394;2023-03-14T07:39:15;11.50;99.90
25328;DHT22;13279;51.300;12.394;2023-03-14T07:41:55;11.60;99.90
25328;DHT22;13279;51.300;12.394;2023-03-14T07:44:25;11.60;99.90
25328;DHT22;13279;51.300;12.394;2023-03-14T07:46:53;11.60;99.90
25328;DHT22;13279;51.300;12.394;2023-03-14T07:49:20;11.70;99.90
25328;DHT22;13279;51.300;12.394;2023-03-14T07:51:48;11.70;99.90
25328;DHT22;13279;51.300;12.394;2023-03-14T07:54:17;11.80;99.90
25328;DHT22;13279;51.300;12.394;2023-03-14T07:56:45;11.80;99.90
25328;DHT22;13279;51.300;12.394;2023-03-14T07:59:12;12.00;99.90
25328;DHT22;13279;51.300;12.394;2023-03-14T08:01:39;12.00;99.90
25328;DHT22;13279;51.300;12.394;2023-03-14T08:04:07;12.10;99.90
25328;DHT22;13279;51.300;12.394;2023-03-14T08:06:35;12.10;99.90
25328;DHT22;13279;51.300;12.394;2023-03-14T08:09:03;12.10;99.90
25328;DHT22;13279;51.300;12.394;2023-03-14T08:11:31;12.10;99.90
25328;DHT22;13279;51.300;12.394;2023-03-14T08:13:59;12.10;99.90
25328;DHT22;13279;51.300;12.394;2023-03-14T08:16:26;12.10;99.90
25328;DHT22;13279;51.300;12.394;2023-03-14T08:18:54;12.10;99.90
25328;DHT22;13279;51.300;12.394;2023-03-14T08:21:21;12.40;99.90
25328;DHT22;13279;51.300;12.394;2023-03-14T08:23:49;12.60;99.90
25328;DHT22;13279;51.300;12.394;2023-03-14T08:26:16;12.60;99.90
25328;DHT22;13279;51.300;12.394;2023-03-14T08:28:45;12.60;99.90
25328;DHT22;13279;51.300;12.394;2023-03-14T08:31:12;12.60;99.90
25328;DHT22;13279;51.300;12.394;2023-03-14T08:33:40;12.60;99.90
25328;DHT22;13279;51.300;12.394;2023-03-14T08:36:08;12.60;99.90
25328;DHT22;13279;51.300;12.394;2023-03-14T08:38:36;12.60;99.90
25328;DHT22;13279;51.300;12.394;2023-03-14T08:41:05;12.50;99.90
25328;DHT22;13279;51.300;12.394;2023-03-14T08:43:35;12.50;99.90
25328;DHT22;13279;51.300;12.394;2023-03-14T08:46:07;12.60;99.90
25328;DHT22;13279;51.300;12.394;2023-03-14T08:48:34;12.60;99.90
25328;DHT22;13279;51.300;12.394;2023-03-14T08:51:06;12.70;99.90
25328;DHT22;13279;51.300;12.394;2023-03-14T08:53:34;12.70;99.90
25328;DHT22;13279;51.300;12.394;2023-03-14T08:56:01;12.80;99.90
25328;DHT22;13279;51.300;12.394;2023-03-14T08:58:30;12.70;99.90
25328;DHT22;13279;51.300;12.394;2023-03-14T09:00:57;12.70;99.90
25328;DHT22;13279;51.300;12.394;2023-03-14T09:03:26;12.80;99.90
25328;DHT22;13279;51.300;12.394;2023-03-14T09:05:54;12.80;99.90
25328;DHT22;13279;51.300;12.394;2023-03-14T09:08:22;12.80;99.90
25328;DHT22;13279;51.300;12.394;2023-03-14T09:10:49;12.80;99.90
25328;DHT22;13279;51.300;12.394;2023-03-14T09:13:16;12.80;99.90
25328;DHT22;13279;51.300;12.394;2023-03-14T09:15:44;12.80;99.90
25328;DHT22;13279;51.300;12.394;2023-03-14T09:18:11;12.80;99.90
25328;DHT22;13279;51.300;12.394;2023-03-14T09:20:39;12.70;99.90
25328;DHT22;13279;51.300;12.394;2023-03-14T09:23:08;12.70;99.90
25328;DHT22;13279;51.300;12.394;2023-03-14T09:25:35;12.70;99.90
25328;DHT22;13279;51.300;12.394;2023-03-14T09:28:02;12.70;99.90
25328;DHT22;13279;51.300;12.394;2023-03-14T09:30:29;12.80;99.90
25328;DHT22;13279;51.300;12.394;2023-03-14T09:32:57;12.90;99.90
25328;DHT22;13279;51.300;12.394;2023-03-14T09:35:24;12.90;99.90
25328;DHT22;13279;51.300;12.394;2023-03-14T09:37:53;12.90;99.90
25328;DHT22;13279;51.300;12.394;2023-03-14T09:40:21;12.90;99.90
25328;DHT22;13279;51.300;12.394;2023-03-14T09:42:51;12.90;99.90
25328;DHT22;13279;51.300;12.394;2023-03-14T09:45:26;12.90;99.90
25328;DHT22;13279;51.300;12.394;2023-03-14T09:47:55;12.80;99.90
25328;DHT22;13279;51.300;12.394;2023-03-14T09:50:25;12.90;99.90
25328;DHT22;13279;51.300;12.394;2023-03-14T09:52:58;12.80;99.90
25328;DHT22;13279;51.300;12.394;2023-03-14T09:55:28;12.90;99.90
25328;DHT22;13279;51.300;12.394;2023-03-14T09:57:58;12.90;99.90
25328;DHT22;13279;51.300;12.394;2023-03-14T10:00:34;13.00;99.90
25328;DHT22;13279;51.300;12.394;2023-03-14T10:03:32;12.90;99.90
25328;DHT22;13279;51.300;12.394;2023-03-14T10:06:45;12.80;99.90
25328;DHT22;13279;51.300;12.394;2023-03-14T10:09:52;13.00;99.90
25328;DHT22;13279;51.300;12.394;2023-03-14T10:12:59;13.00;99.90
25328;DHT22;13279;51.300;12.394;2023-03-14T10:17:01;13.20;99.90
25328;DHT22;13279;51.300;12.394;2023-03-14T10:19:39;13.10;99.90
25328;DHT22;13279;51.300;12.394;2023-03-14T10:22:36;13.10;99.90
25328;DHT22;13279;51.300;12.394;2023-03-14T10:25:45;13.00;99.90
25328;DHT22;13279;51.300;12.394;2023-03-14T10:29:21;13.10;99.90
25328;DHT22;13279;51.300;12.394;2023-03-14T10:32:19;13.10;99.90
25328;DHT22;13279;51.300;12.394;2023-03-14T10:35:24;13.10;99.90
25328;DHT22;13279;51.300;12.394;2023-03-14T10:38:24;13.10;99.90
25328;DHT22;13279;51.300;12.394;2023-03-14T10:41:38;13.10;99.90
25328;DHT22;13279;51.300;12.394;2023-03-14T10:44:34;13.10;99.90
25328;DHT22;13279;51.300;12.394;2023-03-14T10:47:49;13.20;99.90
25328;DHT22;13279;51.300;12.394;2023-03-14T10:50:24;13.20;99.90
25328;DHT22;13279;51.300;12.394;2023-03-14T10:52:53;13.20;99.90
25328;DHT22;13279;51.300;12.394;2023-03-14T10:55:22;13.30;99.90
25328;DHT22;13279;51.300;12.394;2023-03-14T10:57:52;13.40;99.90
25328;DHT22;13279;51.300;12.394;2023-03-14T11:00:21;13.50;99.90
25328;DHT22;13279;51.300;12.394;2023-03-14T11:03:03;13.50;99.90
25328;DHT22;13279;51.300;12.394;2023-03-14T11:05:40;13.60;99.90
25328;DHT22;13279;51.300;12.394;2023-03-14T11:08:12;13.70;99.90
25328;DHT22;13279;51.300;12.394;2023-03-14T11:10:42;13.60;99.90
25328;DHT22;13279;51.300;12.394;2023-03-14T11:13:21;13.60;99.90
25328;DHT22;13279;51.300;12.394;2023-03-14T11:15:57;13.30;99.90
25328;DHT22;13279;51.300;12.394;2023-03-14T11:21:30;13.00;99.90
25328;DHT22;13279;51.300;12.394;2023-03-14T11:27:00;12.90;99.90
25328;DHT22;13279;51.300;12.394;2023-03-14T11:29:37;13.00;99.90
25328;DHT22;13279;51.300;12.394;2023-03-14T11:32:13;13.00;99.90
25328;DHT22;13279;51.300;12.394;2023-03-14T11:34:44;12.90;99.90
25328;DHT22;13279;51.300;12.394;2023-03-14T11:37:19;12.80;99.90
25328;DHT22;13279;51.300;12.394;2023-03-14T11:39:56;12.80;99.90
25328;DHT22;13279;51.300;12.394;2023-03-14T11:42:27;13.00;99.90
25328;DHT22;13279;51.300;12.394;2023-03-14T11:44:59;13.00;99.90
25328;DHT22;13279;51.300;12.394;2023-03-14T11:47:30;13.10;99.90
25328;DHT22;13279;51.300;12.394;2023-03-14T11:50:03;13.20;99.90
25328;DHT22;13279;51.300;12.394;2023-03-14T11:52:37;13.50;99.90
25328;DHT22;13279;51.300;12.394;2023-03-14T11:55:11;13.50;99.90
25328;DHT22;13279;51.300;12.394;2023-03-14T11:57:40;13.70;99.90
25328;DHT22;13279;51.300;12.394;2023-03-14T12:00:16;13.60;99.90
25328;DHT22;13279;51.300;12.394;2023-03-14T12:02:48;13.40;99.90
25328;DHT22;13279;51.300;12.394;2023-03-14T12:05:46;13.40;99.90
25328;DHT22;13279;51.300;12.394;2023-03-14T12:08:43;13.50;99.90
25328;DHT22;13279;51.300;12.394;2023-03-14T12:11:32;13.50;99.90
25328;DHT22;13279;51.300;12.394;2023-03-14T12:14:01;13.60;99.90
25328;DHT22;13279;51.300;12.394;2023-03-14T12:16:39;13.70;99.90
25328;DHT22;13279;51.300;12.394;2023-03-14T12:19:29;13.50;99.90
25328;DHT22;13279;51.300;12.394;2023-03-14T12:22:23;13.50;99.90
25328;DHT22;13279;51.300;12.394;2023-03-14T12:24:54;13.50;99.90
25328;DHT22;13279;51.300;12.394;2023-03-14T12:27:46;13.60;99.90
25328;DHT22;13279;51.300;12.394;2023-03-14T12:30:18;13.50;99.90
25328;DHT22;13279;51.300;12.394;2023-03-14T12:33:21;13.30;99.90
25328;DHT22;13279;51.300;12.394;2023-03-14T12:35:57;13.20;99.90
25328;DHT22;13279;51.300;12.394;2023-03-14T12:38:37;13.40;99.90
25328;DHT22;13279;51.300;12.394;2023-03-14T12:41:15;13.70;99.90
25328;DHT22;13279;51.300;12.394;2023-03-14T12:43:43;14.20;99.90
25328;DHT22;13279;51.300;12.394;2023-03-14T12:46:22;14.80;99.90
25328;DHT22;13279;51.300;12.394;2023-03-14T12:48:55;15.40;99.90
25328;DHT22;13279;51.300;12.394;2023-03-14T12:51:29;15.50;99.90
25328;DHT22;13279;51.300;12.394;2023-03-14T12:54:25;15.30;99.90
25328;DHT22;13279;51.300;12.394;2023-03-14T12:57:06;15.00;99.90
25328;DHT22;13279;51.300;12.394;2023-03-14T12:59:38;14.70;99.90
25328;DHT22;13279;51.300;12.394;2023-03-14T13:02:37;14.60;99.90
25328;DHT22;13279;51.300;12.394;2023-03-14T13:05:12;14.50;99.90
25328;DHT22;13279;51.300;12.394;2023-03-14T13:08:06;14.40;99.90
25328;DHT22;13279;51.300;12.394;2023-03-14T13:10:42;14.40;99.90
25328;DHT22;13279;51.300;12.394;2023-03-14T13:13:19;14.10;99.90
25328;DHT22;13279;51.300;12.394;2023-03-14T13:15:48;14.10;99.90
25328;DHT22;13279;51.300;12.394;2023-03-14T13:18:24;14.10;99.90
25328;DHT22;13279;51.300;12.394;2023-03-14T13:20:58;14.10;99.90
25328;DHT22;13279;51.300;12.394;2023-03-14T13:23:31;14.20;99.90
25328;DHT22;13279;51.300;12.394;2023-03-14T13:26:00;14.10;99.90
25328;DHT22;13279;51.300;12.394;2023-03-14T13:28:28;14.10;99.90
25328;DHT22;13279;51.300;12.394;2023-03-14T13:30:58;14.10;99.90
25328;DHT22;13279;51.300;12.394;2023-03-14T13:33:27;14.20;99.90
25328;DHT22;13279;51.300;12.394;2023-03-14T13:35:58;14.30;99.90
25328;DHT22;13279;51.300;12.394;2023-03-14T13:38:30;14.20;99.90
25328;DHT22;13279;51.300;12.394;2023-03-14T13:41:04;14.30;99.90
25328;DHT22;13279;51.300;12.394;2023-03-14T13:43:33;14.90;99.90
25328;DHT22;13279;51.300;12.394;2023-03-14T13:46:04;15.10;99.90
25328;DHT22;13279;51.300;12.394;2023-03-14T13:48:34;15.20;99.90
25328;DHT22;13279;51.300;12.394;2023-03-14T13:51:05;15.40;99.90
25328;DHT22;13279;51.300;12.394;2023-03-14T13:53:42;15.80;99.90
25328;DHT22;13279;51.300;12.394;2023-03-14T13:56:11;15.80;99.90
25328;DHT22;13279;51.300;12.394;2023-03-14T13:58:39;15.60;99.90
25328;DHT22;13279;51.300;12.394;2023-03-14T14:01:13;15.60;99.90
25328;DHT22;13279;51.300;12.394;2023-03-14T14:03:44;15.80;99.90
25328;DHT22;13279;51.300;12.394;2023-03-14T14:06:30;15.60;99.90
25328;DHT22;13279;51.300;12.394;2023-03-14T14:09:00;15.90;99.90
25328;DHT22;13279;51.300;12.394;2023-03-14T14:11:36;16.20;99.90
25328;DHT22;13279;51.300;12.394;2023-03-14T14:14:10;16.80;99.90
25328;DHT22;13279;51.300;12.394;2023-03-14T14:16:40;16.70;99.90
25328;DHT22;13279;51.300;12.394;2023-03-14T14:19:09;15.80;99.90
25328;DHT22;13279;51.300;12.394;2023-03-14T14:21:38;15.20;99.90
25328;DHT22;13279;51.300;12.394;2023-03-14T14:24:07;14.90;99.90
25328;DHT22;13279;51.300;12.394;2023-03-14T14:26:40;14.80;99.90
25328;DHT22;13279;51.300;12.394;2023-03-14T14:29:24;14.80;99.90
25328;DHT22;13279;51.300;12.394;2023-03-14T14:32:03;14.60;99.90
25328;DHT22;13279;51.300;12.394;2023-03-14T14:34:46;14.40;99.90
25328;DHT22;13279;51.300;12.394;2023-03-14T14:37:22;14.30;99.90
25328;DHT22;13279;51.300;12.394;2023-03-14T14:39:52;14.20;99.90
25328;DHT22;13279;51.300;12.394;2023-03-14T14:42:24;14.00;99.90
25328;DHT22;13279;51.300;12.394;2023-03-14T14:44:53;14.00;99.90
25328;DHT22;13279;51.300;12.394;2023-03-14T14:47:23;14.00;99.90
25328;DHT22;13279;51.300;12.394;2023-03-14T14:49:53;13.90;99.90
25328;DHT22;13279;51.300;12.394;2023-03-14T14:52:34;14.10;99.90
25328;DHT22;13279;51.300;12.394;2023-03-14T14:55:13;13.90;99.90
25328;DHT22;13279;51.300;12.394;2023-03-14T14:57:49;13.60;99.90
25328;DHT22;13279;51.300;12.394;2023-03-14T15:00:19;13.40;99.90
25328;DHT22;13279;51.300;12.394;2023-03-14T15:02:48;13.10;99.90
25328;DHT22;13279;51.300;12.394;2023-03-14T15:05:20;12.50;99.90
25328;DHT22;13279;51.300;12.394;2023-03-14T15:07:49;11.90;99.90
25328;DHT22;13279;51.300;12.394;2023-03-14T15:10:18;11.60;99.90
25328;DHT22;13279;51.300;12.394;2023-03-14T15:12:46;11.30;99.90
25328;DHT22;13279;51.300;12.394;2023-03-14T15:15:16;11.20;99.90
25328;DHT22;13279;51.300;12.394;2023-03-14T15:17:44;11.10;99.90
25328;DHT22;13279;51.300;12.394;2023-03-14T15:20:14;11.00;99.90
25328;DHT22;13279;51.300;12.394;2023-03-14T15:22:42;11.00;99.90
25328;DHT22;13279;51.300;12.394;2023-03-14T15:25:11;10.10;99.90
25328;DHT22;13279;51.300;12.394;2023-03-14T15:27:39;9.00;99.90
25328;DHT22;13279;51.300;12.394;2023-03-14T15:30:11;8.20;99.90
25328;DHT22;13279;51.300;12.394;2023-03-14T15:32:38;7.70;99.90
25328;DHT22;13279;51.300;12.394;2023-03-14T15:35:06;7.40;99.90
25328;DHT22;13279;51.300;12.394;2023-03-14T15:37:34;7.20;99.90
25328;DHT22;13279;51.300;12.394;2023-03-14T15:40:02;7.10;99.90
25328;DHT22;13279;51.300;12.394;2023-03-14T15:42:37;7.00;99.90
25328;DHT22;13279;51.300;12.394;2023-03-14T15:45:06;7.00;99.90
25328;DHT22;13279;51.300;12.394;2023-03-14T15:47:34;6.90;99.90
25328;DHT22;13279;51.300;12.394;2023-03-14T15:50:02;6.80;99.90
25328;DHT22;13279;51.300;12.394;2023-03-14T15:52:29;6.60;99.90
25328;DHT22;13279;51.300;12.394;2023-03-14T15:54:57;6.40;99.90
25328;DHT22;13279;51.300;12.394;2023-03-14T15:57:26;6.30;99.90
25328;DHT22;13279;51.300;12.394;2023-03-14T15:59:59;6.10;99.90
25328;DHT22;13279;51.300;12.394;2023-03-14T16:02:31;6.10;99.90
25328;DHT22;13279;51.300;12.394;2023-03-14T16:05:01;6.00;99.90